Ellendale, North Dakota
Current Conditions -  °F | °C
As of 2:53 PM on Wednesday 26 Nov 2014 (Local Time) from KABR Reporting Station
Broken Clouds Broken Clouds  
Wind Chill: -8°   Ceiling: 7000
Heat Index:   Visibility: 10mi
Dew Point: -1°   Wind: 14mph
Humidity: 67%   Direction: 360°N
Pressure: 30.41"   Gusts: NA
Location:  46°N, 98.53°W
Report Text: KABR 262053Z AUTO 36012KT 10SM BKN070 M13/M18 A3041 RMK AO2 SLP325 T11331183 51013
Loading
Personal Weather Stations






























Interactive Weather Map New forecast layout! Learn more

10-Day Weather Forecast

Advertisements
Track Severe Weather on mobile